Terminal Aerodrome Forecast
Issued by NWS Indianapolis, IN

Home | Current Version | Previous Version | Text Only | Print | Product List | Glossary On
Versions: 1 2 3 4 5 6 7 8 9 10 11 12 13 14 15 16 17 18 19 20 21 22 23 24 25 26 27 28 29 30 31
000
FTUS43 KIND 281100
TAFIND
TAF
KIND 281137Z 2812/2918 23004KT P6SM FEW009 BKN100
     FM281500 18010KT P6SM BKN080
     FM282100 17012G20KT P6SM BKN080
     FM290300 18009KT P6SM BKN200
     FM291100 20012KT P6SM BKN030=

USA.gov is the U.S. government's official web portal to all federal, state and local government web resources and services.